createdAt,value
2022-10-11T00:01:56.103Z,18.50
2022-10-11T00:04:22.857Z,18.50
2022-10-11T00:06:49.623Z,18.40
2022-10-11T00:09:16.388Z,18.40
2022-10-11T00:11:43.564Z,18.40
2022-10-11T00:14:12.965Z,18.40
2022-10-11T00:16:42.175Z,18.40
2022-10-11T00:19:08.906Z,18.30
2022-10-11T00:21:36.711Z,18.30
2022-10-11T00:24:04.435Z,18.30
2022-10-11T00:26:31.225Z,18.30
2022-10-11T00:28:57.924Z,18.30
2022-10-11T00:31:24.800Z,18.30
2022-10-11T00:33:53.764Z,18.30
2022-10-11T00:36:21.115Z,18.20
2022-10-11T00:38:48.393Z,18.20
2022-10-11T00:41:15.874Z,18.20
2022-10-11T00:43:43.406Z,18.20
2022-10-11T00:46:19.191Z,18.20
2022-10-11T00:49:01.490Z,18.20
2022-10-11T00:51:34.312Z,18.20
2022-10-11T00:54:02.662Z,18.20
2022-10-11T00:56:36.502Z,18.10
2022-10-11T00:59:08.606Z,18.10
2022-10-11T01:01:35.530Z,18.10
2022-10-11T01:04:02.907Z,18.10
2022-10-11T01:06:29.886Z,18.10
2022-10-11T01:08:56.894Z,18.10
2022-10-11T01:11:26.878Z,18.00
2022-10-11T01:13:59.195Z,18.00
2022-10-11T01:16:37.121Z,18.00
2022-10-11T01:19:12.903Z,18.00
2022-10-11T01:22:01.456Z,18.00
2022-10-11T01:24:57.720Z,18.00
2022-10-11T01:27:48.100Z,18.00
2022-10-11T01:30:32.430Z,17.90
2022-10-11T01:33:26.723Z,17.90
2022-10-11T01:36:27.693Z,17.90
2022-10-11T01:39:04.462Z,17.90
2022-10-11T01:41:44.019Z,17.90
2022-10-11T01:44:13.088Z,17.80
2022-10-11T01:46:40.912Z,17.80
2022-10-11T01:49:08.267Z,17.80
2022-10-11T01:51:42.905Z,17.80
2022-10-11T01:54:16.591Z,17.80
2022-10-11T01:56:49.019Z,17.80
2022-10-11T01:59:34.380Z,17.80
2022-10-11T02:02:04.111Z,17.70
2022-10-11T02:04:38.487Z,17.70
2022-10-11T02:07:16.753Z,17.70
2022-10-11T02:09:56.688Z,17.70
2022-10-11T02:13:05.351Z,17.70
2022-10-11T02:15:36.630Z,17.60
2022-10-11T02:18:09.878Z,17.60
2022-10-11T02:20:39.603Z,17.60
2022-10-11T02:23:14.366Z,17.60
2022-10-11T02:25:42.746Z,17.60
2022-10-11T02:28:14.153Z,17.60
2022-10-11T02:30:44.718Z,17.60
2022-10-11T02:33:15.006Z,17.60
2022-10-11T02:35:49.850Z,17.50
2022-10-11T02:38:24.549Z,17.50
2022-10-11T02:40:58.323Z,17.50
2022-10-11T02:43:41.608Z,17.50
2022-10-11T02:46:10.046Z,17.50
2022-10-11T02:48:37.730Z,17.50
2022-10-11T02:51:04.892Z,17.40
2022-10-11T02:53:33.511Z,17.40
2022-10-11T02:56:00.257Z,17.50
2022-10-11T02:58:27.023Z,17.40
2022-10-11T03:00:56.768Z,17.40
2022-10-11T03:03:23.504Z,17.40
2022-10-11T03:05:50.221Z,17.40
2022-10-11T03:08:17.429Z,17.40
2022-10-11T03:10:44.259Z,17.40
2022-10-11T03:13:14.801Z,17.30
2022-10-11T03:15:44.013Z,17.30
2022-10-11T03:18:10.723Z,17.20
2022-10-11T03:20:37.463Z,17.30
2022-10-11T03:23:04.192Z,17.30
2022-10-11T03:25:30.982Z,17.20
2022-10-11T03:27:57.737Z,17.20
2022-10-11T03:30:24.544Z,17.20
2022-10-11T03:32:51.802Z,17.20
2022-10-11T03:35:18.600Z,17.20
2022-10-11T03:37:45.638Z,17.20
2022-10-11T03:40:13.356Z,17.20
2022-10-11T03:42:40.970Z,17.20
2022-10-11T03:45:08.953Z,17.20
2022-10-11T03:47:39.524Z,17.20
2022-10-11T03:50:09.170Z,17.20
2022-10-11T03:52:36.471Z,17.20
2022-10-11T03:55:03.549Z,17.10
2022-10-11T03:57:30.572Z,17.10
2022-10-11T03:59:57.810Z,17.10
2022-10-11T04:02:24.750Z,17.10
2022-10-11T04:04:51.495Z,17.10
2022-10-11T04:07:18.657Z,17.00
2022-10-11T04:09:47.899Z,17.00
2022-10-11T04:12:14.751Z,17.00
2022-10-11T04:14:41.498Z,17.00
2022-10-11T04:17:08.224Z,17.00
2022-10-11T04:19:37.168Z,17.00
2022-10-11T04:22:05.025Z,17.00
2022-10-11T04:24:32.190Z,17.00
2022-10-11T04:26:58.957Z,17.00
2022-10-11T04:29:28.884Z,17.00
2022-10-11T04:32:02.075Z,16.90
2022-10-11T04:34:28.817Z,16.90
2022-10-11T04:36:56.065Z,16.90
2022-10-11T04:39:22.800Z,16.90
2022-10-11T04:41:49.521Z,16.90
2022-10-11T04:44:16.276Z,16.80
2022-10-11T04:46:42.976Z,16.80
2022-10-11T04:49:09.769Z,16.80
2022-10-11T04:51:36.579Z,16.80
2022-10-11T04:54:03.884Z,16.80
2022-10-11T04:56:30.649Z,16.80
2022-10-11T04:58:57.393Z,16.80
2022-10-11T05:01:24.292Z,16.70
2022-10-11T05:03:51.070Z,16.70
2022-10-11T05:06:17.822Z,16.70
2022-10-11T05:08:44.661Z,16.70
2022-10-11T05:11:15.803Z,16.70
2022-10-11T05:13:43.411Z,16.70
2022-10-11T05:16:11.519Z,16.70
2022-10-11T05:18:40.732Z,16.70
2022-10-11T05:21:14.605Z,16.60
2022-10-11T05:23:41.413Z,16.60
2022-10-11T05:26:08.489Z,16.60
2022-10-11T05:28:35.895Z,16.60
2022-10-11T05:31:02.712Z,16.50
2022-10-11T05:33:29.528Z,16.50
2022-10-11T05:35:56.295Z,16.40
2022-10-11T05:38:24.125Z,16.20
2022-10-11T05:40:50.894Z,16.10
2022-10-11T05:43:18.245Z,16.00
2022-10-11T05:45:45.407Z,15.80
2022-10-11T05:48:13.045Z,15.80
2022-10-11T05:50:39.773Z,15.90
2022-10-11T05:53:06.900Z,16.00
2022-10-11T05:55:41.089Z,16.00
2022-10-11T05:58:10.114Z,16.10
2022-10-11T06:00:40.695Z,16.20
2022-10-11T06:03:08.588Z,16.20
2022-10-11T06:05:35.793Z,16.30
2022-10-11T06:08:03.699Z,16.30
2022-10-11T06:10:30.887Z,16.30
2022-10-11T06:12:58.131Z,16.40
2022-10-11T06:15:27.547Z,16.40
2022-10-11T06:17:54.955Z,16.40
2022-10-11T06:20:24.604Z,16.20
2022-10-11T06:22:53.478Z,15.60
2022-10-11T06:25:20.714Z,15.50
2022-10-11T06:27:47.875Z,15.50
2022-10-11T06:30:15.196Z,15.60
2022-10-11T06:32:41.932Z,15.70
2022-10-11T06:35:09.514Z,15.80
2022-10-11T06:37:36.849Z,15.80
2022-10-11T06:40:04.681Z,15.70
2022-10-11T06:42:31.396Z,15.60
2022-10-11T06:45:01.029Z,15.60
2022-10-11T06:47:27.731Z,15.60
2022-10-11T06:49:54.466Z,15.70
2022-10-11T06:52:21.154Z,15.80
2022-10-11T06:54:48.348Z,15.90
2022-10-11T06:57:15.651Z,16.00
2022-10-11T06:59:42.376Z,16.00
2022-10-11T07:02:12.117Z,16.10
2022-10-11T07:04:39.353Z,16.10
2022-10-11T07:07:06.064Z,16.20
2022-10-11T07:09:34.308Z,16.20
2022-10-11T07:12:00.915Z,16.20
2022-10-11T07:14:27.676Z,16.30
2022-10-11T07:16:57.983Z,16.30
2022-10-11T07:19:24.740Z,16.40
2022-10-11T07:21:51.632Z,16.40
2022-10-11T07:24:18.441Z,16.40
2022-10-11T07:26:45.829Z,16.50
2022-10-11T07:29:12.605Z,16.50
2022-10-11T07:31:42.048Z,16.20
2022-10-11T07:34:09.707Z,16.10
2022-10-11T07:36:36.970Z,16.20
2022-10-11T07:39:07.897Z,16.20
2022-10-11T07:41:35.621Z,16.30
2022-10-11T07:44:03.235Z,16.30
2022-10-11T07:46:30.358Z,16.20
2022-10-11T07:48:57.552Z,16.30
2022-10-11T07:51:25.656Z,16.30
2022-10-11T07:53:55.430Z,16.40
2022-10-11T07:56:27.619Z,16.40
2022-10-11T07:58:57.402Z,16.50
2022-10-11T08:01:25.367Z,16.60
2022-10-11T08:03:52.566Z,16.60
2022-10-11T08:06:23.099Z,16.70
2022-10-11T08:08:49.977Z,16.80
2022-10-11T08:11:37.145Z,16.60
2022-10-11T08:14:08.590Z,16.20
2022-10-11T08:16:39.453Z,15.80
2022-10-11T08:19:06.685Z,15.50
2022-10-11T08:21:33.945Z,15.40
2022-10-11T08:24:03.031Z,15.20
2022-10-11T08:26:30.256Z,15.20
2022-10-11T08:28:58.632Z,15.10
2022-10-11T08:31:25.374Z,15.10
2022-10-11T08:33:52.127Z,15.10
2022-10-11T08:36:18.874Z,15.20
2022-10-11T08:38:45.599Z,15.20
2022-10-11T08:41:47.372Z,15.30
2022-10-11T08:44:23.182Z,15.40
2022-10-11T08:47:00.323Z,15.40
2022-10-11T08:49:32.434Z,15.40
2022-10-11T08:52:35.151Z,15.50
2022-10-11T08:55:08.325Z,15.60
2022-10-11T08:57:37.233Z,15.60
2022-10-11T09:00:12.629Z,15.60
2022-10-11T09:03:07.537Z,15.70
2022-10-11T09:05:39.017Z,15.70
2022-10-11T09:08:36.857Z,15.70
2022-10-11T09:11:12.903Z,15.80
2022-10-11T09:13:57.636Z,15.90
2022-10-11T09:16:38.157Z,16.00
2022-10-11T09:19:07.941Z,16.00
2022-10-11T09:21:53.639Z,16.10
2022-10-11T09:24:37.854Z,16.10
2022-10-11T09:27:57.860Z,16.10
2022-10-11T09:30:21.164Z,16.20
2022-10-11T09:32:59.512Z,16.20
2022-10-11T09:35:28.294Z,16.30
2022-10-11T09:38:19.070Z,16.20
2022-10-11T09:40:53.880Z,16.10
2022-10-11T09:43:23.205Z,16.10
2022-10-11T09:45:49.959Z,16.10
2022-10-11T09:48:32.928Z,16.20
2022-10-11T09:51:05.090Z,16.20
2022-10-11T09:54:02.215Z,16.20
2022-10-11T09:56:31.730Z,16.30
2022-10-11T09:59:24.180Z,16.40
2022-10-11T10:02:18.389Z,16.50
2022-10-11T10:04:57.039Z,16.70
2022-10-11T10:07:24.681Z,16.80
2022-10-11T10:09:52.791Z,16.80
2022-10-11T10:12:26.439Z,16.90
2022-10-11T10:15:00.344Z,16.90
2022-10-11T10:17:27.184Z,17.00
2022-10-11T10:19:56.239Z,17.00
2022-10-11T10:22:29.054Z,17.10
2022-10-11T10:24:56.989Z,17.00
2022-10-11T10:27:25.677Z,16.90
2022-10-11T10:30:15.984Z,16.90
2022-10-11T10:33:05.975Z,16.90
2022-10-11T10:35:43.430Z,16.90
2022-10-11T10:38:24.086Z,17.00
2022-10-11T10:40:56.643Z,17.10
2022-10-11T10:43:26.272Z,17.20
2022-10-11T10:46:14.610Z,17.30
2022-10-11T10:49:28.713Z,17.40
2022-10-11T10:52:09.748Z,17.40
2022-10-11T10:55:14.510Z,17.60
2022-10-11T10:58:12.896Z,17.70
2022-10-11T11:00:48.622Z,17.70
2022-10-11T11:03:33.366Z,17.80
2022-10-11T11:06:07.795Z,17.80
2022-10-11T11:08:56.844Z,17.70
2022-10-11T11:11:43.597Z,17.70
2022-10-11T11:14:29.182Z,17.60
2022-10-11T11:17:22.036Z,17.50
2022-10-11T11:20:17.707Z,17.40
2022-10-11T11:23:23.431Z,17.40
2022-10-11T11:26:29.115Z,17.40
2022-10-11T11:29:10.568Z,17.40
2022-10-11T11:31:37.249Z,17.40
2022-10-11T11:34:27.978Z,17.50
2022-10-11T11:37:00.213Z,17.50
2022-10-11T11:39:32.963Z,17.60
2022-10-11T11:42:08.866Z,17.70
2022-10-11T11:44:40.015Z,17.70
2022-10-11T11:47:13.741Z,17.80
2022-10-11T11:49:49.489Z,17.80
2022-10-11T11:52:39.391Z,17.80
2022-10-11T11:55:11.668Z,17.80
2022-10-11T11:57:50.965Z,17.80
2022-10-11T12:00:24.081Z,17.80
2022-10-11T12:02:58.712Z,17.80
2022-10-11T12:05:33.903Z,17.70
2022-10-11T12:08:23.408Z,17.70
2022-10-11T12:10:50.076Z,17.70
2022-10-11T12:13:24.822Z,17.70
2022-10-11T12:16:04.648Z,17.70
2022-10-11T12:18:33.939Z,17.70
2022-10-11T12:21:07.091Z,17.70
2022-10-11T12:23:44.060Z,17.60
2022-10-11T12:26:29.242Z,17.60
2022-10-11T12:29:25.922Z,17.60
2022-10-11T12:32:03.382Z,17.60
2022-10-11T12:37:20.541Z,17.60
2022-10-11T12:39:55.610Z,17.60
2022-10-11T12:42:29.913Z,17.60
2022-10-11T12:45:14.352Z,17.60
2022-10-11T12:48:05.780Z,17.50
2022-10-11T12:50:45.299Z,17.60
2022-10-11T12:53:32.756Z,17.50
2022-10-11T12:56:12.071Z,17.50
2022-10-11T12:58:41.609Z,17.50
2022-10-11T13:01:13.856Z,17.50
2022-10-11T13:03:44.267Z,17.40
2022-10-11T13:06:25.078Z,17.40
2022-10-11T13:08:57.126Z,17.40
2022-10-11T13:11:32.718Z,17.40
2022-10-11T13:14:06.223Z,17.40
2022-10-11T13:17:04.428Z,17.40
2022-10-11T13:19:33.554Z,17.30
2022-10-11T13:22:04.076Z,17.40
2022-10-11T13:24:39.466Z,17.40
2022-10-11T13:27:07.871Z,17.40
2022-10-11T13:29:40.573Z,17.40
2022-10-11T13:32:20.910Z,17.40
2022-10-11T13:34:53.420Z,17.40
2022-10-11T13:37:22.809Z,17.50
2022-10-11T13:39:52.203Z,17.40
2022-10-11T13:42:23.468Z,17.40
2022-10-11T13:44:50.427Z,17.50
2022-10-11T13:47:26.738Z,17.50
2022-10-11T13:50:11.487Z,17.50
2022-10-11T13:53:17.935Z,17.50
2022-10-11T13:55:59.859Z,17.50
2022-10-11T13:58:28.589Z,17.50
2022-10-11T14:01:01.347Z,17.40
2022-10-11T14:03:38.937Z,17.30
2022-10-11T14:06:06.164Z,17.30
2022-10-11T14:08:42.376Z,17.30
2022-10-11T14:11:12.179Z,17.30
2022-10-11T14:13:47.760Z,17.20
2022-10-11T14:16:30.423Z,17.20
2022-10-11T14:19:00.208Z,17.20
2022-10-11T14:21:30.900Z,17.20
2022-10-11T14:24:00.871Z,17.20
2022-10-11T14:26:34.113Z,17.20
2022-10-11T14:29:22.162Z,17.20
2022-10-11T14:31:49.528Z,17.20
2022-10-11T14:34:22.436Z,17.10
2022-10-11T14:36:50.328Z,17.10
2022-10-11T14:39:22.350Z,17.10
2022-10-11T14:41:51.833Z,17.10
2022-10-11T14:44:19.770Z,17.10
2022-10-11T14:46:48.843Z,17.10
2022-10-11T14:49:27.584Z,17.10
2022-10-11T14:51:57.211Z,17.10
2022-10-11T14:54:25.855Z,17.10
2022-10-11T14:56:55.049Z,17.10
2022-10-11T14:59:24.571Z,17.10
2022-10-11T15:01:53.647Z,17.10
2022-10-11T15:04:26.110Z,17.10
2022-10-11T15:06:55.282Z,17.00
2022-10-11T15:09:22.692Z,17.00
2022-10-11T15:11:54.210Z,17.00
2022-10-11T15:14:23.395Z,17.00
2022-10-11T15:16:50.262Z,17.00
2022-10-11T15:19:23.439Z,17.00
2022-10-11T15:21:51.167Z,17.00
2022-10-11T15:24:19.996Z,17.00
2022-10-11T15:26:47.930Z,17.00
2022-10-11T15:29:17.957Z,17.00
2022-10-11T15:31:45.966Z,17.00
2022-10-11T15:34:12.731Z,16.90
2022-10-11T15:36:39.542Z,16.90
2022-10-11T15:39:32.677Z,16.90
2022-10-11T15:41:59.931Z,16.80
2022-10-11T15:44:26.778Z,16.80
2022-10-11T15:46:53.664Z,16.80
2022-10-11T15:49:20.978Z,16.80
2022-10-11T15:51:47.741Z,16.80
2022-10-11T15:54:14.478Z,16.80
2022-10-11T15:56:41.648Z,16.80
2022-10-11T15:59:11.477Z,16.80
2022-10-11T16:01:38.287Z,16.70
2022-10-11T16:04:05.351Z,16.70
2022-10-11T16:06:33.246Z,16.60
2022-10-11T16:08:59.951Z,16.60
2022-10-11T16:11:26.736Z,16.50
2022-10-11T16:13:53.529Z,16.50
2022-10-11T16:16:20.268Z,16.50
2022-10-11T16:18:49.229Z,16.50
2022-10-11T16:21:16.027Z,16.60
2022-10-11T16:23:43.065Z,16.70
2022-10-11T16:26:13.905Z,16.80
2022-10-11T16:28:42.052Z,16.80
2022-10-11T16:31:09.670Z,16.90
2022-10-11T16:33:45.568Z,17.00
2022-10-11T16:36:35.415Z,17.00
2022-10-11T16:39:18.269Z,17.10
2022-10-11T16:41:46.294Z,17.10
2022-10-11T16:44:27.849Z,17.20
2022-10-11T16:46:55.493Z,17.20
2022-10-11T16:49:25.208Z,17.20
2022-10-11T16:51:53.266Z,17.20
2022-10-11T16:54:21.225Z,17.30
2022-10-11T16:56:49.947Z,17.30
2022-10-11T16:59:17.350Z,17.30
2022-10-11T17:01:45.160Z,17.30
2022-10-11T17:04:13.454Z,17.30
2022-10-11T17:06:40.714Z,17.30
2022-10-11T17:09:08.235Z,17.30
2022-10-11T17:11:35.001Z,17.30
2022-10-11T17:14:02.550Z,17.30
2022-10-11T17:16:29.434Z,17.30
2022-10-11T17:18:56.207Z,17.30
2022-10-11T17:21:23.556Z,17.30
2022-10-11T17:23:50.439Z,17.30
2022-10-11T17:26:20.322Z,17.30
2022-10-11T17:28:47.548Z,17.30
2022-10-11T17:31:14.485Z,17.30
2022-10-11T17:33:41.205Z,17.30
2022-10-11T17:36:24.782Z,17.30
2022-10-11T17:38:52.397Z,17.30
2022-10-11T17:41:20.307Z,17.30
2022-10-11T17:43:47.371Z,17.20
2022-10-11T17:46:16.104Z,17.30
2022-10-11T17:48:44.540Z,17.30
2022-10-11T17:51:13.904Z,17.30
2022-10-11T17:53:40.852Z,17.20
2022-10-11T17:56:13.357Z,17.20
2022-10-11T17:58:40.206Z,17.20
2022-10-11T18:01:13.578Z,17.20
2022-10-11T18:03:40.646Z,17.20
2022-10-11T18:06:12.425Z,17.20
2022-10-11T18:08:40.845Z,17.20
2022-10-11T18:11:15.228Z,17.20
2022-10-11T18:13:46.010Z,17.10
2022-10-11T18:16:15.622Z,17.10
2022-10-11T18:18:46.221Z,17.10
2022-10-11T18:21:14.043Z,17.10
2022-10-11T18:23:41.649Z,17.10
2022-10-11T18:26:27.930Z,17.10
2022-10-11T18:28:57.484Z,17.10
2022-10-11T18:31:26.341Z,17.10
2022-10-11T18:33:54.280Z,17.10
2022-10-11T18:36:24.477Z,17.10
2022-10-11T18:38:56.808Z,17.10
2022-10-11T18:41:30.616Z,17.10
2022-10-11T18:44:00.148Z,17.00
2022-10-11T18:46:28.680Z,17.00
2022-10-11T18:48:57.652Z,17.00
2022-10-11T18:51:27.984Z,17.00
2022-10-11T18:53:55.998Z,17.00
2022-10-11T18:56:26.782Z,17.00
2022-10-11T18:58:55.620Z,17.00
2022-10-11T19:01:26.308Z,17.00
2022-10-11T19:03:57.670Z,16.90
2022-10-11T19:06:27.479Z,16.90
2022-10-11T19:09:00.031Z,16.90
2022-10-11T19:11:27.960Z,16.90
2022-10-11T19:14:00.802Z,16.90
2022-10-11T19:16:29.878Z,16.90
2022-10-11T19:18:57.824Z,16.90
2022-10-11T19:21:25.076Z,16.90
2022-10-11T19:23:52.249Z,16.80
2022-10-11T19:26:27.047Z,16.90
2022-10-11T19:29:05.501Z,16.80
2022-10-11T19:31:34.074Z,16.80
2022-10-11T19:34:01.022Z,16.80
2022-10-11T19:36:31.411Z,16.80
2022-10-11T19:39:00.908Z,16.80
2022-10-11T19:41:28.376Z,16.80
2022-10-11T19:43:58.027Z,16.80
2022-10-11T19:46:50.312Z,16.80
2022-10-11T19:49:13.989Z,16.80
2022-10-11T19:51:40.716Z,16.70
2022-10-11T19:54:10.660Z,16.70
2022-10-11T19:56:37.930Z,16.70
2022-10-11T19:59:06.437Z,16.70
2022-10-11T20:01:35.158Z,16.70
2022-10-11T20:04:04.887Z,16.70
2022-10-11T20:06:38.060Z,16.70
2022-10-11T20:09:29.641Z,16.70
2022-10-11T20:11:55.937Z,16.60
2022-10-11T20:14:22.737Z,16.70
2022-10-11T20:16:50.214Z,16.60
2022-10-11T20:19:17.200Z,16.60
2022-10-11T20:21:45.011Z,16.60
2022-10-11T20:24:11.803Z,16.60
2022-10-11T20:26:39.324Z,16.60
2022-10-11T20:29:06.382Z,16.60
2022-10-11T20:31:34.554Z,16.60
2022-10-11T20:34:04.114Z,16.50
2022-10-11T20:36:31.936Z,16.50
2022-10-11T20:38:59.779Z,16.50
2022-10-11T20:41:39.890Z,16.50
2022-10-11T20:44:07.983Z,16.50
2022-10-11T20:46:37.221Z,16.50
2022-10-11T20:49:11.303Z,16.40
2022-10-11T20:51:39.732Z,16.50
2022-10-11T20:54:06.621Z,16.50
2022-10-11T20:56:34.267Z,16.50
2022-10-11T20:59:01.347Z,16.40
2022-10-11T21:01:34.361Z,16.40
2022-10-11T21:04:01.930Z,16.40
2022-10-11T21:06:30.186Z,16.40
2022-10-11T21:08:58.935Z,16.40
2022-10-11T21:11:31.136Z,16.40
2022-10-11T21:13:59.089Z,16.40
2022-10-11T21:16:25.941Z,16.40
2022-10-11T21:18:55.514Z,16.30
2022-10-11T21:21:23.968Z,16.30
2022-10-11T21:23:54.673Z,16.30
2022-10-11T21:26:22.077Z,16.30
2022-10-11T21:28:51.209Z,16.30
2022-10-11T21:31:20.253Z,16.30
2022-10-11T21:33:47.292Z,16.30
2022-10-11T21:36:20.096Z,16.30
2022-10-11T21:38:48.027Z,16.30
2022-10-11T21:41:17.587Z,16.30
2022-10-11T21:43:44.356Z,16.20
2022-10-11T21:46:41.591Z,16.20
2022-10-11T21:49:12.892Z,16.20
2022-10-11T21:51:39.780Z,16.20
2022-10-11T21:54:06.728Z,16.20
2022-10-11T21:56:33.486Z,16.20
2022-10-11T21:59:00.268Z,16.10
2022-10-11T22:01:27.737Z,16.20
2022-10-11T22:03:54.715Z,16.10
2022-10-11T22:06:21.684Z,16.10
2022-10-11T22:08:49.932Z,16.10
2022-10-11T22:11:16.874Z,16.10
2022-10-11T22:13:43.847Z,16.10
2022-10-11T22:16:12.357Z,16.10
2022-10-11T22:18:39.619Z,16.10
2022-10-11T22:21:16.898Z,16.00
2022-10-11T22:23:46.608Z,16.00
2022-10-11T22:26:24.884Z,16.00
2022-10-11T22:28:53.252Z,16.00
2022-10-11T22:31:20.841Z,16.00
2022-10-11T22:33:47.871Z,16.00
2022-10-11T22:36:19.037Z,16.00
2022-10-11T22:38:47.488Z,15.90
2022-10-11T22:41:14.626Z,15.90
2022-10-11T22:43:41.520Z,15.90
2022-10-11T22:46:08.634Z,15.90
2022-10-11T22:48:35.889Z,15.90
2022-10-11T22:51:02.901Z,15.90
2022-10-11T22:53:30.468Z,15.90
2022-10-11T22:55:57.453Z,15.90
2022-10-11T22:58:24.200Z,15.90
2022-10-11T23:00:53.161Z,15.90
2022-10-11T23:03:20.261Z,15.90
2022-10-11T23:05:57.520Z,15.80
2022-10-11T23:08:24.738Z,15.80
2022-10-11T23:10:51.588Z,15.80
2022-10-11T23:13:18.487Z,15.80
2022-10-11T23:15:45.435Z,15.80
2022-10-11T23:18:14.891Z,15.80
2022-10-11T23:20:41.634Z,15.80
2022-10-11T23:23:08.391Z,15.80
2022-10-11T23:25:37.846Z,15.70
2022-10-11T23:28:04.804Z,15.70
2022-10-11T23:30:31.727Z,15.70
2022-10-11T23:32:58.521Z,15.70
2022-10-11T23:35:25.346Z,15.70
2022-10-11T23:37:54.239Z,15.70
2022-10-11T23:40:20.972Z,15.70
2022-10-11T23:42:47.669Z,15.70
2022-10-11T23:45:14.465Z,15.70
2022-10-11T23:47:41.310Z,15.60
2022-10-11T23:50:08.753Z,15.60
2022-10-11T23:52:35.456Z,15.60
2022-10-11T23:55:02.182Z,15.60
2022-10-11T23:57:28.955Z,15.60
2022-10-11T23:59:57.835Z,15.60
